Time,TemperatureF,DewpointF,PressureIn,WindDirection,WindDirectionDegrees,WindSpeedMPH,WindSpeedGustMPH,Humidity,HourlyPrecipIn,Conditions,Clouds,dailyrainin,SolarRadiationWatts/m^2,SoftwareType,DateUTC
2013-08-07 00:00:00,69.0,65.0,-100.00,SSW,202,2.0,-999.0,88,-99.99,,,-99.99,0.000000,,2013-08-07 04:00:00,
2013-08-07 00:33:00,69.0,65.0,-100.00,SSW,202,2.0,-999.0,88,-99.99,,,-99.99,0.000000,,2013-08-07 04:33:00,
2013-08-07 00:43:00,69.0,65.0,-100.00,SSW,202,2.0,-999.0,88,-99.99,,,-99.99,0.000000,,2013-08-07 04:43:00,
2013-08-07 00:52:00,69.0,65.0,-100.00,SSW,202,2.0,-999.0,88,-99.99,,,-99.99,0.000000,,2013-08-07 04:52:00,
2013-08-07 01:00:00,69.0,65.0,-100.00,South,180,3.0,-999.0,89,-99.99,,,-99.99,0.000000,,2013-08-07 05:00:00,
2013-08-07 01:32:00,69.0,65.0,-100.00,South,180,3.0,-999.0,89,-99.99,,,-99.99,0.000000,,2013-08-07 05:32:00,
2013-08-07 01:43:00,69.0,65.0,-100.00,South,180,3.0,-999.0,89,-99.99,,,-99.99,0.000000,,2013-08-07 05:43:00,
2013-08-07 01:52:00,69.0,65.0,-100.00,South,180,3.0,-999.0,89,-99.99,,,-99.99,0.000000,,2013-08-07 05:52:00,
2013-08-07 02:00:00,68.0,65.0,-100.00,SSW,202,3.0,-999.0,90,-99.99,,,-99.99,0.000000,,2013-08-07 06:00:00,
2013-08-07 02:43:00,68.0,65.0,-100.00,SSW,202,3.0,-999.0,90,-99.99,,,-99.99,0.000000,,2013-08-07 06:43:00,
2013-08-07 02:52:00,68.0,65.0,-100.00,SSW,202,3.0,-999.0,90,-99.99,,,-99.99,0.000000,,2013-08-07 06:52:00,
2013-08-07 03:00:00,68.0,66.0,-100.00,SSW,202,3.0,-999.0,90,-99.99,,,-99.99,0.000000,,2013-08-07 07:00:00,
2013-08-07 03:43:00,68.0,66.0,-100.00,SSW,202,3.0,-999.0,90,-99.99,,,-99.99,0.000000,,2013-08-07 07:43:00,
2013-08-07 03:53:00,68.0,66.0,-100.00,SSW,202,3.0,-999.0,90,-99.99,,,-99.99,0.000000,,2013-08-07 07:53:00,
2013-08-07 04:00:00,68.0,65.0,-100.00,SSW,202,2.0,-999.0,91,-99.99,,,-99.99,0.000000,,2013-08-07 08:00:00,
2013-08-07 04:44:00,68.0,65.0,-100.00,SSW,202,2.0,-999.0,91,-99.99,,,-99.99,0.000000,,2013-08-07 08:44:00,
2013-08-07 04:53:00,68.0,65.0,-100.00,SSW,202,2.0,-999.0,91,-99.99,,,-99.99,0.000000,,2013-08-07 08:53:00,
2013-08-07 05:00:00,68.0,66.0,-100.00,South,180,3.0,-999.0,91,-99.99,,,-99.99,0.000000,,2013-08-07 09:00:00,
2013-08-07 05:43:00,68.0,66.0,-100.00,South,180,3.0,-999.0,91,-99.99,,,-99.99,0.000000,,2013-08-07 09:43:00,
2013-08-07 05:54:00,68.0,66.0,-100.00,South,180,3.0,-999.0,91,-99.99,,,-99.99,0.000000,,2013-08-07 09:54:00,
2013-08-07 06:00:00,68.0,65.0,-100.00,South,180,2.0,-999.0,92,-99.99,,,-99.99,0.000000,,2013-08-07 10:00:00,
2013-08-07 06:43:00,68.0,65.0,-100.00,South,180,2.0,-999.0,92,-99.99,,,-99.99,0.000000,,2013-08-07 10:43:00,
2013-08-07 06:52:00,68.0,65.0,-100.00,South,180,2.0,-999.0,92,-99.99,,,-99.99,0.000000,,2013-08-07 10:52:00,
2013-08-07 07:00:00,68.0,66.0,-100.00,South,180,3.0,-999.0,92,-99.99,,,-99.99,1.160000,,2013-08-07 11:00:00,
2013-08-07 07:43:00,68.0,66.0,-100.00,South,180,3.0,-999.0,92,-99.99,,,-99.99,1.160000,,2013-08-07 11:43:00,
2013-08-07 07:53:00,68.0,66.0,-100.00,South,180,3.0,-999.0,92,-99.99,,,-99.99,1.160000,,2013-08-07 11:53:00,
2013-08-07 08:00:00,69.0,67.0,-100.00,SSW,202,3.0,-999.0,92,-99.99,,,-99.99,8.120000,,2013-08-07 12:00:00,
2013-08-07 08:43:00,69.0,67.0,-100.00,SSW,202,3.0,-999.0,92,-99.99,,,-99.99,8.120000,,2013-08-07 12:43:00,
2013-08-07 08:52:00,69.0,67.0,-100.00,SSW,202,3.0,-999.0,92,-99.99,,,-99.99,8.120000,,2013-08-07 12:52:00,
2013-08-07 09:00:00,69.0,67.0,-100.00,SSW,202,3.0,-999.0,92,-99.99,,,-99.99,17.400000,,2013-08-07 13:00:00,
2013-08-07 09:44:00,69.0,67.0,-100.00,SSW,202,3.0,-999.0,92,-99.99,,,-99.99,17.400000,,2013-08-07 13:44:00,
2013-08-07 09:53:00,69.0,67.0,-100.00,SSW,202,3.0,-999.0,92,-99.99,,,-99.99,17.400000,,2013-08-07 13:53:00,
2013-08-07 10:00:00,65.0,63.0,-100.00,NE,45,6.0,-999.0,90,0.02,,,-99.99,5.800000,,2013-08-07 14:00:00,
2013-08-07 10:33:00,65.0,63.0,-100.00,NE,45,6.0,-999.0,90,0.02,,,-99.99,5.800000,,2013-08-07 14:33:00,
2013-08-07 10:43:00,65.0,63.0,-100.00,NE,45,6.0,-999.0,90,0.02,,,-99.99,5.800000,,2013-08-07 14:43:00,
2013-08-07 10:52:00,65.0,63.0,-100.00,NE,45,6.0,-999.0,90,0.02,,,-99.99,5.800000,,2013-08-07 14:52:00,
2013-08-07 11:00:00,65.0,63.0,-100.00,East,90,5.0,-999.0,91,0.03,,,-99.99,162.399994,,2013-08-07 15:00:00,
2013-08-07 11:43:00,65.0,63.0,-100.00,East,90,5.0,-999.0,91,0.03,,,-99.99,162.399994,,2013-08-07 15:43:00,
2013-08-07 11:53:00,65.0,63.0,-100.00,East,90,5.0,-999.0,91,0.03,,,-99.99,162.399994,,2013-08-07 15:53:00,
2013-08-07 12:00:00,70.0,66.0,-100.00,SE,135,6.0,-999.0,86,-99.99,,,-99.99,479.079987,,2013-08-07 16:00:00,
2013-08-07 12:33:00,70.0,66.0,-100.00,SE,135,6.0,-999.0,86,-99.99,,,-99.99,479.079987,,2013-08-07 16:33:00,
2013-08-07 12:43:00,70.0,66.0,-100.00,SE,135,6.0,-999.0,86,-99.99,,,-99.99,479.079987,,2013-08-07 16:43:00,
2013-08-07 12:53:00,70.0,66.0,-100.00,SE,135,6.0,-999.0,86,-99.99,,,-99.99,479.079987,,2013-08-07 16:53:00,
2013-08-07 14:00:00,77.0,69.0,-100.00,SSE,157,5.0,-999.0,76,0.01,,,-99.99,561.440002,,2013-08-07 18:00:00,
2013-08-07 14:43:00,77.0,69.0,-100.00,SSE,157,5.0,-999.0,76,0.01,,,-99.99,561.440002,,2013-08-07 18:43:00,
2013-08-07 14:52:00,77.0,69.0,-100.00,SSE,157,5.0,-999.0,76,0.01,,,-99.99,561.440002,,2013-08-07 18:52:00,
2013-08-07 15:00:00,79.0,70.0,-100.00,South,180,5.0,-999.0,74,-99.99,,,-99.99,395.559998,,2013-08-07 19:00:00,
2013-08-07 16:00:00,77.0,69.0,-100.00,SW,225,5.0,-999.0,75,-99.99,,,-99.99,360.760010,,2013-08-07 20:00:00,
2013-08-07 16:43:00,77.0,69.0,-100.00,SW,225,5.0,-999.0,75,-99.99,,,-99.99,360.760010,,2013-08-07 20:43:00,
2013-08-07 16:52:00,77.0,69.0,-100.00,SW,225,5.0,-999.0,75,-99.99,,,-99.99,360.760010,,2013-08-07 20:52:00,
2013-08-07 17:00:00,75.0,66.0,-100.00,SW,225,3.0,-999.0,73,-99.99,,,-99.99,341.040009,,2013-08-07 21:00:00,
2013-08-07 18:00:00,77.0,66.0,-100.00,SW,225,2.0,-999.0,67,-99.99,,,-99.99,367.720001,,2013-08-07 22:00:00,
2013-08-07 18:43:00,77.0,66.0,-100.00,SW,225,2.0,-999.0,67,-99.99,,,-99.99,367.720001,,2013-08-07 22:43:00,
2013-08-07 18:52:00,77.0,66.0,-100.00,SW,225,2.0,-999.0,67,-99.99,,,-99.99,367.720001,,2013-08-07 22:52:00,
2013-08-07 19:00:00,78.0,67.0,-100.00,SW,225,3.0,-999.0,68,-99.99,,,-99.99,254.039993,,2013-08-07 23:00:00,
2013-08-07 19:43:00,78.0,67.0,-100.00,SW,225,3.0,-999.0,68,-99.99,,,-99.99,254.039993,,2013-08-07 23:43:00,
2013-08-07 19:52:00,78.0,67.0,-100.00,SW,225,3.0,-999.0,68,-99.99,,,-99.99,254.039993,,2013-08-07 23:52:00,
2013-08-07 20:00:00,75.0,66.0,-100.00,WSW,247,3.0,-999.0,73,-99.99,,,-99.99,119.480003,,2013-08-08 00:00:00,
2013-08-07 20:43:00,75.0,66.0,-100.00,WSW,247,3.0,-999.0,73,-99.99,,,-99.99,119.480003,,2013-08-08 00:43:00,
2013-08-07 20:53:00,75.0,66.0,-100.00,WSW,247,3.0,-999.0,73,-99.99,,,-99.99,119.480003,,2013-08-08 00:53:00,
2013-08-07 21:00:00,73.0,66.0,-100.00,West,270,1.0,-999.0,79,-99.99,,,-99.99,26.680000,,2013-08-08 01:00:00,
2013-08-07 21:32:00,73.0,66.0,-100.00,West,270,1.0,-999.0,79,-99.99,,,-99.99,26.680000,,2013-08-08 01:32:00,
2013-08-07 21:43:00,73.0,66.0,-100.00,West,270,1.0,-999.0,79,-99.99,,,-99.99,26.680000,,2013-08-08 01:43:00,
2013-08-07 21:52:00,73.0,66.0,-100.00,West,270,1.0,-999.0,79,-99.99,,,-99.99,26.680000,,2013-08-08 01:52:00,
2013-08-07 23:00:00,69.0,66.0,-100.00,NNW,337,1.0,-999.0,89,-99.99,,,-99.99,0.000000,,2013-08-08 03:00:00,
2013-08-07 23:43:00,69.0,66.0,-100.00,NNW,337,1.0,-999.0,89,-99.99,,,-99.99,0.000000,,2013-08-08 03:43:00,
2013-08-07 23:52:00,69.0,66.0,-100.00,NNW,337,1.0,-999.0,89,-99.99,,,-99.99,0.000000,,2013-08-08 03:52:00,